sensor_id;sensor_type;location;lat;lon;timestamp;pressure;altitude;pressure_sealevel;temperature;humidity
77574;BME280;66710;48.868;9.080;2023-12-20T00:01:15;98093.28;;;5.09;100.00
77574;BME280;66710;48.868;9.080;2023-12-20T00:03:41;98088.97;;;5.08;100.00
77574;BME280;66710;48.868;9.080;2023-12-20T00:06:06;98093.06;;;5.11;100.00
77574;BME280;66710;48.868;9.080;2023-12-20T00:08:32;98083.53;;;5.20;100.00
77574;BME280;66710;48.868;9.080;2023-12-20T00:10:57;98090.38;;;5.11;100.00
77574;BME280;66710;48.868;9.080;2023-12-20T00:13:22;98084.59;;;4.96;100.00
77574;BME280;66710;48.868;9.080;2023-12-20T00:15:48;98081.56;;;4.92;100.00
77574;BME280;66710;48.868;9.080;2023-12-20T00:18:13;98076.53;;;4.84;100.00
77574;BME280;66710;48.868;9.080;2023-12-20T00:20:39;98069.47;;;4.83;100.00
77574;BME280;66710;48.868;9.080;2023-12-20T00:23:04;98070.16;;;4.90;100.00
77574;BME280;66710;48.868;9.080;2023-12-20T00:25:30;98063.84;;;4.84;100.00
77574;BME280;66710;48.868;9.080;2023-12-20T00:27:55;98067.81;;;4.82;100.00
77574;BME280;66710;48.868;9.080;2023-12-20T00:30:20;98064.88;;;4.71;100.00
77574;BME280;66710;48.868;9.080;2023-12-20T00:32:46;98061.72;;;4.63;100.00
77574;BME280;66710;48.868;9.080;2023-12-20T00:35:15;98053.13;;;4.66;100.00
77574;BME280;66710;48.868;9.080;2023-12-20T00:37:42;98052.19;;;4.60;100.00
77574;BME280;66710;48.868;9.080;2023-12-20T00:40:07;98051.72;;;4.63;100.00
77574;BME280;66710;48.868;9.080;2023-12-20T00:42:33;98053.75;;;4.68;100.00
77574;BME280;66710;48.868;9.080;2023-12-20T00:44:59;98054.66;;;4.62;100.00
77574;BME280;66710;48.868;9.080;2023-12-20T00:47:24;98055.13;;;4.59;100.00
77574;BME280;66710;48.868;9.080;2023-12-20T00:49:50;98059.47;;;4.60;100.00
77574;BME280;66710;48.868;9.080;2023-12-20T00:52:15;98067.22;;;4.56;100.00
77574;BME280;66710;48.868;9.080;2023-12-20T00:54:42;98066.63;;;4.54;100.00
77574;BME280;66710;48.868;9.080;2023-12-20T00:57:07;98067.31;;;4.49;100.00
77574;BME280;66710;48.868;9.080;2023-12-20T00:59:33;98067.41;;;4.43;100.00
77574;BME280;66710;48.868;9.080;2023-12-20T01:01:58;98070.72;;;4.45;100.00
77574;BME280;66710;48.868;9.080;2023-12-20T01:04:24;98059.09;;;4.44;100.00
77574;BME280;66710;48.868;9.080;2023-12-20T01:06:49;98069.50;;;4.41;100.00
77574;BME280;66710;48.868;9.080;2023-12-20T01:09:14;98068.78;;;4.33;100.00
77574;BME280;66710;48.868;9.080;2023-12-20T01:11:40;98066.69;;;4.35;100.00
77574;BME280;66710;48.868;9.080;2023-12-20T01:14:05;98063.97;;;4.35;100.00
77574;BME280;66710;48.868;9.080;2023-12-20T01:16:30;98063.75;;;4.37;100.00
77574;BME280;66710;48.868;9.080;2023-12-20T01:18:56;98066.47;;;4.37;100.00
77574;BME280;66710;48.868;9.080;2023-12-20T01:21:21;98067.88;;;4.40;100.00
77574;BME280;66710;48.868;9.080;2023-12-20T01:23:46;98063.75;;;4.37;100.00
77574;BME280;66710;48.868;9.080;2023-12-20T01:26:12;98071.03;;;4.36;100.00
77574;BME280;66710;48.868;9.080;2023-12-20T01:28:38;98076.28;;;4.31;100.00
77574;BME280;66710;48.868;9.080;2023-12-20T01:31:03;98075.00;;;4.34;100.00
77574;BME280;66710;48.868;9.080;2023-12-20T01:33:29;98071.13;;;4.30;100.00
77574;BME280;66710;48.868;9.080;2023-12-20T01:35:55;98082.59;;;4.25;100.00
77574;BME280;66710;48.868;9.080;2023-12-20T01:38:20;98084.47;;;4.25;100.00
77574;BME280;66710;48.868;9.080;2023-12-20T01:40:46;98086.44;;;4.17;100.00
77574;BME280;66710;48.868;9.080;2023-12-20T01:43:11;98085.41;;;4.18;100.00
77574;BME280;66710;48.868;9.080;2023-12-20T01:45:37;98073.78;;;4.18;100.00
77574;BME280;66710;48.868;9.080;2023-12-20T01:48:04;98076.44;;;4.06;100.00
77574;BME280;66710;48.868;9.080;2023-12-20T01:50:31;98065.19;;;4.09;100.00
77574;BME280;66710;48.868;9.080;2023-12-20T01:52:58;98073.91;;;4.11;100.00
77574;BME280;66710;48.868;9.080;2023-12-20T01:55:25;98071.56;;;4.15;100.00
77574;BME280;66710;48.868;9.080;2023-12-20T01:57:52;98061.97;;;4.19;100.00
77574;BME280;66710;48.868;9.080;2023-12-20T02:00:17;98065.38;;;4.26;100.00
77574;BME280;66710;48.868;9.080;2023-12-20T02:02:45;98067.63;;;4.41;100.00
77574;BME280;66710;48.868;9.080;2023-12-20T02:05:11;98068.69;;;4.40;100.00
77574;BME280;66710;48.868;9.080;2023-12-20T02:07:37;98067.03;;;4.39;100.00
77574;BME280;66710;48.868;9.080;2023-12-20T02:10:03;98064.84;;;4.48;100.00
77574;BME280;66710;48.868;9.080;2023-12-20T02:12:29;98065.78;;;4.42;100.00
77574;BME280;66710;48.868;9.080;2023-12-20T02:14:55;98072.34;;;4.46;100.00
77574;BME280;66710;48.868;9.080;2023-12-20T02:17:20;98072.00;;;4.54;100.00
77574;BME280;66710;48.868;9.080;2023-12-20T02:19:45;98076.50;;;4.72;100.00
77574;BME280;66710;48.868;9.080;2023-12-20T02:22:11;98072.03;;;4.78;100.00
77574;BME280;66710;48.868;9.080;2023-12-20T02:24:37;98079.56;;;4.75;100.00
77574;BME280;66710;48.868;9.080;2023-12-20T02:27:03;98071.47;;;4.75;100.00
77574;BME280;66710;48.868;9.080;2023-12-20T02:29:28;98073.47;;;4.80;100.00
77574;BME280;66710;48.868;9.080;2023-12-20T02:31:54;98079.44;;;4.94;100.00
77574;BME280;66710;48.868;9.080;2023-12-20T02:34:19;98072.41;;;4.93;100.00
77574;BME280;66710;48.868;9.080;2023-12-20T02:36:44;98074.38;;;4.98;100.00
77574;BME280;66710;48.868;9.080;2023-12-20T02:39:10;98068.75;;;4.99;100.00
77574;BME280;66710;48.868;9.080;2023-12-20T02:41:35;98073.94;;;4.89;100.00
77574;BME280;66710;48.868;9.080;2023-12-20T02:44:02;98076.28;;;4.85;100.00
77574;BME280;66710;48.868;9.080;2023-12-20T02:46:27;98067.81;;;4.93;100.00
77574;BME280;66710;48.868;9.080;2023-12-20T02:48:52;98070.16;;;4.90;100.00
77574;BME280;66710;48.868;9.080;2023-12-20T02:51:18;98066.41;;;4.79;100.00
77574;BME280;66710;48.868;9.080;2023-12-20T02:53:43;98059.50;;;4.71;100.00
77574;BME280;66710;48.868;9.080;2023-12-20T02:56:09;98076.50;;;4.72;100.00
77574;BME280;66710;48.868;9.080;2023-12-20T02:58:34;98068.03;;;4.68;100.00
77574;BME280;66710;48.868;9.080;2023-12-20T03:00:59;98064.63;;;4.61;100.00
77574;BME280;66710;48.868;9.080;2023-12-20T03:03:25;98066.75;;;4.59;100.00
77574;BME280;66710;48.868;9.080;2023-12-20T03:05:50;98071.16;;;4.53;100.00
77574;BME280;66710;48.868;9.080;2023-12-20T03:08:15;98077.78;;;4.58;100.00
77574;BME280;66710;48.868;9.080;2023-12-20T03:10:41;98074.34;;;4.50;100.00
77574;BME280;66710;48.868;9.080;2023-12-20T03:13:06;98072.13;;;4.47;100.00
77574;BME280;66710;48.868;9.080;2023-12-20T03:15:32;98077.75;;;4.46;100.00
77574;BME280;66710;48.868;9.080;2023-12-20T03:17:57;98081.88;;;4.48;100.00
77574;BME280;66710;48.868;9.080;2023-12-20T03:20:24;98084.66;;;4.42;100.00
77574;BME280;66710;48.868;9.080;2023-12-20T03:22:51;98103.97;;;4.39;100.00
77574;BME280;66710;48.868;9.080;2023-12-20T03:25:16;98091.09;;;4.41;100.00
77574;BME280;66710;48.868;9.080;2023-12-20T03:27:41;98083.34;;;4.32;100.00
77574;BME280;66710;48.868;9.080;2023-12-20T03:30:07;98084.97;;;4.33;100.00
77574;BME280;66710;48.868;9.080;2023-12-20T03:32:33;98086.28;;;4.31;100.00
77574;BME280;66710;48.868;9.080;2023-12-20T03:34:58;98092.63;;;4.36;100.00
77574;BME280;66710;48.868;9.080;2023-12-20T03:37:23;98087.53;;;4.28;100.00
77574;BME280;66710;48.868;9.080;2023-12-20T03:39:49;98092.78;;;4.23;100.00
77574;BME280;66710;48.868;9.080;2023-12-20T03:42:14;98097.72;;;4.26;100.00
77574;BME280;66710;48.868;9.080;2023-12-20T03:44:39;98098.53;;;4.27;100.00
77574;BME280;66710;48.868;9.080;2023-12-20T03:47:10;98096.22;;;4.30;100.00
77574;BME280;66710;48.868;9.080;2023-12-20T03:49:36;98100.66;;;4.25;100.00
77574;BME280;66710;48.868;9.080;2023-12-20T03:52:02;98100.88;;;4.23;100.00
77574;BME280;66710;48.868;9.080;2023-12-20T03:54:28;98104.06;;;4.20;100.00
77574;BME280;66710;48.868;9.080;2023-12-20T03:56:53;98103.22;;;4.20;100.00
77574;BME280;66710;48.868;9.080;2023-12-20T03:59:19;98103.91;;;4.15;100.00
77574;BME280;66710;48.868;9.080;2023-12-20T04:01:44;98103.44;;;4.18;100.00
77574;BME280;66710;48.868;9.080;2023-12-20T04:04:10;98109.53;;;4.13;100.00
77574;BME280;66710;48.868;9.080;2023-12-20T04:06:36;98094.84;;;4.09;100.00
77574;BME280;66710;48.868;9.080;2023-12-20T04:09:01;98103.69;;;4.16;100.00
77574;BME280;66710;48.868;9.080;2023-12-20T04:11:27;98107.88;;;4.12;100.00
77574;BME280;66710;48.868;9.080;2023-12-20T04:13:52;98093.00;;;4.22;100.00
77574;BME280;66710;48.868;9.080;2023-12-20T04:16:17;98097.00;;;4.19;100.00
77574;BME280;66710;48.868;9.080;2023-12-20T04:18:43;98106.38;;;4.16;100.00
77574;BME280;66710;48.868;9.080;2023-12-20T04:21:08;98105.31;;;4.17;100.00
77574;BME280;66710;48.868;9.080;2023-12-20T04:23:33;98105.53;;;4.16;100.00
77574;BME280;66710;48.868;9.080;2023-12-20T04:25:59;98113.03;;;4.14;100.00
77574;BME280;66710;48.868;9.080;2023-12-20T04:28:24;98104.28;;;4.18;100.00
77574;BME280;66710;48.868;9.080;2023-12-20T04:30:50;98104.28;;;4.18;100.00
77574;BME280;66710;48.868;9.080;2023-12-20T04:33:15;98127.03;;;4.23;100.00
77574;BME280;66710;48.868;9.080;2023-12-20T04:35:41;98124.69;;;4.26;100.00
77574;BME280;66710;48.868;9.080;2023-12-20T04:38:08;98118.13;;;4.22;100.00
77574;BME280;66710;48.868;9.080;2023-12-20T04:40:33;98128.19;;;4.15;100.00
77574;BME280;66710;48.868;9.080;2023-12-20T04:42:59;98133.47;;;4.22;100.00
77574;BME280;66710;48.868;9.080;2023-12-20T04:45:24;98126.56;;;4.26;100.00
77574;BME280;66710;48.868;9.080;2023-12-20T04:47:50;98131.25;;;4.18;100.00
77574;BME280;66710;48.868;9.080;2023-12-20T04:50:15;98136.16;;;4.22;100.00
77574;BME280;66710;48.868;9.080;2023-12-20T04:52:41;98124.34;;;4.23;100.00
77574;BME280;66710;48.868;9.080;2023-12-20T04:55:07;98145.75;;;4.17;100.00
77574;BME280;66710;48.868;9.080;2023-12-20T04:57:34;98150.69;;;4.21;100.00
77574;BME280;66710;48.868;9.080;2023-12-20T04:59:59;98149.19;;;4.25;100.00
77574;BME280;66710;48.868;9.080;2023-12-20T05:02:24;98154.13;;;4.28;100.00
77574;BME280;66710;48.868;9.080;2023-12-20T05:04:50;98155.03;;;4.22;100.00
77574;BME280;66710;48.868;9.080;2023-12-20T05:07:15;98151.44;;;4.28;100.00
77574;BME280;66710;48.868;9.080;2023-12-20T05:09:41;98157.19;;;4.31;100.00
77574;BME280;66710;48.868;9.080;2023-12-20T05:12:06;98155.75;;;4.29;100.00
77574;BME280;66710;48.868;9.080;2023-12-20T05:14:32;98168.22;;;4.30;100.00
77574;BME280;66710;48.868;9.080;2023-12-20T05:16:57;98161.16;;;4.29;100.00
77574;BME280;66710;48.868;9.080;2023-12-20T05:19:24;98163.84;;;4.29;100.00
77574;BME280;66710;48.868;9.080;2023-12-20T05:21:49;98171.63;;;4.37;100.00
77574;BME280;66710;48.868;9.080;2023-12-20T05:24:15;98175.63;;;4.34;100.00
77574;BME280;66710;48.868;9.080;2023-12-20T05:26:40;98172.56;;;4.31;100.00
77574;BME280;66710;48.868;9.080;2023-12-20T05:29:06;98172.78;;;4.29;100.00
77574;BME280;66710;48.868;9.080;2023-12-20T05:31:31;98175.63;;;4.34;100.00
77574;BME280;66710;48.868;9.080;2023-12-20T05:33:57;98188.50;;;4.32;100.00
77574;BME280;66710;48.868;9.080;2023-12-20T05:36:22;98189.56;;;4.31;100.00
77574;BME280;66710;48.868;9.080;2023-12-20T05:38:48;98190.38;;;4.32;100.00
77574;BME280;66710;48.868;9.080;2023-12-20T05:41:13;98192.25;;;4.31;100.00
77574;BME280;66710;48.868;9.080;2023-12-20T05:43:39;98196.34;;;4.34;100.00
77574;BME280;66710;48.868;9.080;2023-12-20T05:46:04;98206.31;;;4.33;100.00
77574;BME280;66710;48.868;9.080;2023-12-20T05:48:30;98202.00;;;4.32;100.00
77574;BME280;66710;48.868;9.080;2023-12-20T05:50:55;98209.63;;;4.35;100.00
77574;BME280;66710;48.868;9.080;2023-12-20T05:53:21;98209.63;;;4.35;100.00
77574;BME280;66710;48.868;9.080;2023-12-20T05:55:46;98214.78;;;4.37;100.00
77574;BME280;66710;48.868;9.080;2023-12-20T05:58:12;98215.16;;;4.41;100.00
77574;BME280;66710;48.868;9.080;2023-12-20T06:00:37;98223.03;;;4.42;100.00
77574;BME280;66710;48.868;9.080;2023-12-20T06:03:03;98224.69;;;4.43;100.00
77574;BME280;66710;48.868;9.080;2023-12-20T06:05:30;98228.78;;;4.46;100.00
77574;BME280;66710;48.868;9.080;2023-12-20T06:07:55;98228.63;;;4.41;100.00
77574;BME280;66710;48.868;9.080;2023-12-20T06:10:26;98237.31;;;4.43;100.00
77574;BME280;66710;48.868;9.080;2023-12-20T06:12:52;98233.66;;;4.37;100.00
77574;BME280;66710;48.868;9.080;2023-12-20T06:15:17;98236.13;;;4.39;100.00
77574;BME280;66710;48.868;9.080;2023-12-20T06:17:43;98240.34;;;4.34;100.00
77574;BME280;66710;48.868;9.080;2023-12-20T06:20:09;98238.53;;;4.47;100.00
77574;BME280;66710;48.868;9.080;2023-12-20T06:22:35;98245.19;;;4.44;100.00
77574;BME280;66710;48.868;9.080;2023-12-20T06:25:01;98247.22;;;4.49;100.00
77574;BME280;66710;48.868;9.080;2023-12-20T06:27:28;98246.41;;;4.48;100.00
77574;BME280;66710;48.868;9.080;2023-12-20T06:29:53;98239.94;;;4.49;100.00
77574;BME280;66710;48.868;9.080;2023-12-20T06:32:18;98235.00;;;4.46;100.00
77574;BME280;66710;48.868;9.080;2023-12-20T06:34:44;98234.41;;;4.44;100.00
77574;BME280;66710;48.868;9.080;2023-12-20T06:37:09;98244.53;;;4.49;100.00
77574;BME280;66710;48.868;9.080;2023-12-20T06:39:35;98249.91;;;4.49;100.00
77574;BME280;66710;48.868;9.080;2023-12-20T06:42:00;98239.28;;;4.54;100.00
77574;BME280;66710;48.868;9.080;2023-12-20T06:44:26;98244.53;;;4.49;100.00
77574;BME280;66710;48.868;9.080;2023-12-20T06:46:51;98247.00;;;4.50;100.00
77574;BME280;66710;48.868;9.080;2023-12-20T06:49:17;98250.59;;;4.74;100.00
77574;BME280;66710;48.868;9.080;2023-12-20T06:51:43;98253.78;;;4.71;100.00
77574;BME280;66710;48.868;9.080;2023-12-20T06:54:09;98247.41;;;4.66;100.00
77574;BME280;66710;48.868;9.080;2023-12-20T06:56:34;98254.38;;;4.55;100.00
77574;BME280;66710;48.868;9.080;2023-12-20T06:58:59;98260.16;;;4.59;100.00
77574;BME280;66710;48.868;9.080;2023-12-20T07:01:25;98266.63;;;4.58;100.00
77574;BME280;66710;48.868;9.080;2023-12-20T07:03:50;98269.16;;;4.52;100.00
77574;BME280;66710;48.868;9.080;2023-12-20T07:06:15;98267.34;;;4.46;100.00
77574;BME280;66710;48.868;9.080;2023-12-20T07:08:42;98274.41;;;4.47;100.00
77574;BME280;66710;48.868;9.080;2023-12-20T07:11:07;98272.16;;;4.44;100.00
77574;BME280;66710;48.868;9.080;2023-12-20T07:13:33;98288.13;;;4.46;100.00
77574;BME280;66710;48.868;9.080;2023-12-20T07:15:58;98283.41;;;4.41;100.00
77574;BME280;66710;48.868;9.080;2023-12-20T07:18:23;98292.78;;;4.39;100.00
77574;BME280;66710;48.868;9.080;2023-12-20T07:20:49;98303.34;;;4.40;100.00
77574;BME280;66710;48.868;9.080;2023-12-20T07:23:14;98314.72;;;4.42;100.00
77574;BME280;66710;48.868;9.080;2023-12-20T07:25:40;98304.91;;;4.48;100.00
77574;BME280;66710;48.868;9.080;2023-12-20T07:28:05;98303.94;;;4.42;100.00
77574;BME280;66710;48.868;9.080;2023-12-20T07:30:31;98295.69;;;4.37;100.00
77574;BME280;66710;48.868;9.080;2023-12-20T07:32:56;98291.38;;;4.36;100.00
77574;BME280;66710;48.868;9.080;2023-12-20T07:35:23;98302.28;;;4.41;100.00
77574;BME280;66710;48.868;9.080;2023-12-20T07:37:48;98298.00;;;4.33;100.00
77574;BME280;66710;48.868;9.080;2023-12-20T07:40:13;98300.34;;;4.30;100.00
77574;BME280;66710;48.868;9.080;2023-12-20T07:42:39;98313.22;;;4.28;100.00
77574;BME280;66710;48.868;9.080;2023-12-20T07:45:05;98303.25;;;4.28;100.00
77574;BME280;66710;48.868;9.080;2023-12-20T07:47:30;98292.16;;;4.18;100.00
77574;BME280;66710;48.868;9.080;2023-12-20T07:49:56;98297.41;;;4.13;100.00
77574;BME280;66710;48.868;9.080;2023-12-20T07:52:21;98294.31;;;4.09;100.00
77574;BME280;66710;48.868;9.080;2023-12-20T07:54:49;98295.59;;;4.07;100.00
77574;BME280;66710;48.868;9.080;2023-12-20T07:57:15;98301.88;;;4.01;100.00
77574;BME280;66710;48.868;9.080;2023-12-20T07:59:40;98308.94;;;4.02;100.00
77574;BME280;66710;48.868;9.080;2023-12-20T08:02:05;98313.06;;;4.41;100.00
77574;BME280;66710;48.868;9.080;2023-12-20T08:04:31;98308.97;;;3.95;100.00
77574;BME280;66710;48.868;9.080;2023-12-20T08:06:58;98309.72;;;4.27;100.00
77574;BME280;66710;48.868;9.080;2023-12-20T08:09:23;98319.34;;;4.72;100.00
77574;BME280;66710;48.868;9.080;2023-12-20T08:11:48;98318.56;;;5.02;100.00
77574;BME280;66710;48.868;9.080;2023-12-20T08:14:14;98314.84;;;4.84;100.00
77574;BME280;66710;48.868;9.080;2023-12-20T08:16:40;98324.47;;;4.62;100.00
77574;BME280;66710;48.868;9.080;2023-12-20T08:19:05;98329.28;;;4.90;100.00
77574;BME280;66710;48.868;9.080;2023-12-20T08:21:31;98329.75;;;4.13;100.00
77574;BME280;66710;48.868;9.080;2023-12-20T08:23:56;98339.53;;;4.32;100.00
77574;BME280;66710;48.868;9.080;2023-12-20T08:26:22;98336.13;;;5.23;100.00
77574;BME280;66710;48.868;9.080;2023-12-20T08:28:48;98349.34;;;4.82;100.00
77574;BME280;66710;48.868;9.080;2023-12-20T08:31:14;98338.53;;;4.82;100.00
77574;BME280;66710;48.868;9.080;2023-12-20T08:33:41;98329.00;;;4.98;100.00
77574;BME280;66710;48.868;9.080;2023-12-20T08:36:06;98333.66;;;5.21;100.00
77574;BME280;66710;48.868;9.080;2023-12-20T08:38:32;98341.72;;;5.09;100.00
77574;BME280;66710;48.868;9.080;2023-12-20T08:40:57;98350.03;;;5.08;100.00
77574;BME280;66710;48.868;9.080;2023-12-20T08:43:22;98340.59;;;4.99;100.00
77574;BME280;66710;48.868;9.080;2023-12-20T08:45:48;98337.38;;;5.08;100.00
77574;BME280;66710;48.868;9.080;2023-12-20T08:48:13;98346.63;;;5.43;100.00
77574;BME280;66710;48.868;9.080;2023-12-20T08:50:38;98352.06;;;5.12;100.00
77574;BME280;66710;48.868;9.080;2023-12-20T08:53:04;98357.75;;;5.04;100.00
77574;BME280;66710;48.868;9.080;2023-12-20T08:55:29;98362.44;;;5.27;100.00
77574;BME280;66710;48.868;9.080;2023-12-20T08:57:56;98372.47;;;5.81;100.00
77574;BME280;66710;48.868;9.080;2023-12-20T09:00:21;98357.84;;;5.58;100.00
77574;BME280;66710;48.868;9.080;2023-12-20T09:02:49;98350.00;;;5.26;100.00
77574;BME280;66710;48.868;9.080;2023-12-20T09:05:14;98343.63;;;5.51;100.00
77574;BME280;66710;48.868;9.080;2023-12-20T09:07:40;98339.47;;;5.48;100.00
77574;BME280;66710;48.868;9.080;2023-12-20T09:10:06;98342.81;;;5.62;100.00
77574;BME280;66710;48.868;9.080;2023-12-20T09:12:31;98340.34;;;5.61;100.00
77574;BME280;66710;48.868;9.080;2023-12-20T09:14:56;98328.56;;;5.55;100.00
77574;BME280;66710;48.868;9.080;2023-12-20T09:17:22;98343.13;;;5.42;100.00
77574;BME280;66710;48.868;9.080;2023-12-20T09:19:50;98341.31;;;5.78;100.00
77574;BME280;66710;48.868;9.080;2023-12-20T09:22:17;98337.91;;;5.83;100.00
77574;BME280;66710;48.868;9.080;2023-12-20T09:24:43;98337.91;;;5.83;100.00
77574;BME280;66710;48.868;9.080;2023-12-20T09:27:08;98340.63;;;5.83;100.00
77574;BME280;66710;48.868;9.080;2023-12-20T09:29:34;98346.78;;;6.02;100.00
77574;BME280;66710;48.868;9.080;2023-12-20T09:31:59;98341.56;;;6.48;100.00
77574;BME280;66710;48.868;9.080;2023-12-20T09:34:24;98346.94;;;5.77;100.00
77574;BME280;66710;48.868;9.080;2023-12-20T09:36:51;98359.09;;;5.86;100.00
77574;BME280;66710;48.868;9.080;2023-12-20T09:39:18;98352.56;;;6.05;100.00
77574;BME280;66710;48.868;9.080;2023-12-20T09:42:03;98370.34;;;5.83;100.00
77574;BME280;66710;48.868;9.080;2023-12-20T09:44:30;98361.81;;;5.56;100.00
77574;BME280;66710;48.868;9.080;2023-12-20T09:46:57;98363.00;;;5.18;100.00
77574;BME280;66710;48.868;9.080;2023-12-20T09:49:22;98372.63;;;4.95;100.00
77574;BME280;66710;48.868;9.080;2023-12-20T09:51:50;98376.09;;;4.84;100.00
77574;BME280;66710;48.868;9.080;2023-12-20T09:54:17;98382.16;;;4.79;100.00
77574;BME280;66710;48.868;9.080;2023-12-20T09:56:42;98376.03;;;4.72;100.00
77574;BME280;66710;48.868;9.080;2023-12-20T09:59:08;98384.03;;;4.60;100.00
77574;BME280;66710;48.868;9.080;2023-12-20T10:01:34;98372.50;;;4.53;100.00
77574;BME280;66710;48.868;9.080;2023-12-20T10:04:00;98369.19;;;4.51;100.00
77574;BME280;66710;48.868;9.080;2023-12-20T10:06:27;98377.94;;;4.46;100.00
77574;BME280;66710;48.868;9.080;2023-12-20T10:08:52;98384.69;;;4.37;100.00
77574;BME280;66710;48.868;9.080;2023-12-20T10:11:18;98371.16;;;4.44;100.00
77574;BME280;66710;48.868;9.080;2023-12-20T10:13:47;98387.38;;;4.37;100.00
77574;BME280;66710;48.868;9.080;2023-12-20T10:16:13;98364.84;;;4.31;100.00
77574;BME280;66710;48.868;9.080;2023-12-20T10:18:39;98368.19;;;4.27;100.00
77574;BME280;66710;48.868;9.080;2023-12-20T10:21:05;98371.56;;;4.22;100.00
77574;BME280;66710;48.868;9.080;2023-12-20T10:23:31;98380.66;;;4.28;100.00
77574;BME280;66710;48.868;9.080;2023-12-20T10:26:00;98359.44;;;4.31;100.00
77574;BME280;66710;48.868;9.080;2023-12-20T10:28:26;98359.88;;;4.28;100.00
77574;BME280;66710;48.868;9.080;2023-12-20T10:30:54;98360.69;;;4.29;100.00
77574;BME280;66710;48.868;9.080;2023-12-20T10:33:27;98358.09;;;4.41;100.00
77574;BME280;66710;48.868;9.080;2023-12-20T10:35:52;98359.22;;;4.51;100.00
77574;BME280;66710;48.868;9.080;2023-12-20T10:38:18;98359.69;;;4.67;100.00
77574;BME280;66710;48.868;9.080;2023-12-20T10:40:45;98367.25;;;4.77;100.00
77574;BME280;66710;48.868;9.080;2023-12-20T10:43:11;98357.22;;;4.84;100.00
77574;BME280;66710;48.868;9.080;2023-12-20T10:45:37;98357.34;;;4.89;100.00
77574;BME280;66710;48.868;9.080;2023-12-20T10:48:03;98348.47;;;5.00;100.00
77574;BME280;66710;48.868;9.080;2023-12-20T10:50:30;98348.75;;;5.10;100.00
77574;BME280;66710;48.868;9.080;2023-12-20T10:52:56;98342.75;;;5.39;100.00
77574;BME280;66710;48.868;9.080;2023-12-20T10:55:22;98340.38;;;5.73;100.00
77574;BME280;66710;48.868;9.080;2023-12-20T10:57:50;98339.13;;;6.22;100.00
77574;BME280;66710;48.868;9.080;2023-12-20T11:00:17;98318.94;;;5.59;100.00
77574;BME280;66710;48.868;9.080;2023-12-20T11:02:43;98347.34;;;5.50;100.00
77574;BME280;66710;48.868;9.080;2023-12-20T11:07:59;98350.31;;;5.18;100.00
77574;BME280;66710;48.868;9.080;2023-12-20T11:10:46;98344.34;;;4.98;100.00
77574;BME280;66710;48.868;9.080;2023-12-20T11:13:52;98340.47;;;4.93;100.00
77574;BME280;66710;48.868;9.080;2023-12-20T11:16:18;98339.44;;;4.94;100.00
77574;BME280;66710;48.868;9.080;2023-12-20T11:18:44;98340.53;;;4.87;100.00
77574;BME280;66710;48.868;9.080;2023-12-20T11:21:10;98346.28;;;4.79;100.00
77574;BME280;66710;48.868;9.080;2023-12-20T11:23:36;98337.81;;;4.75;100.00
77574;BME280;66710;48.868;9.080;2023-12-20T11:26:02;98330.28;;;4.77;100.00
77574;BME280;66710;48.868;9.080;2023-12-20T11:28:28;98323.00;;;4.78;100.00
77574;BME280;66710;48.868;9.080;2023-12-20T11:30:56;98324.09;;;4.77;100.00
77574;BME280;66710;48.868;9.080;2023-12-20T11:33:44;98330.59;;;4.69;100.00
77574;BME280;66710;48.868;9.080;2023-12-20T11:36:25;98334.50;;;4.73;100.00
77574;BME280;66710;48.868;9.080;2023-12-20T11:38:55;98338.03;;;4.73;100.00
77574;BME280;66710;48.868;9.080;2023-12-20T11:41:22;98331.81;;;4.73;100.00
77574;BME280;66710;48.868;9.080;2023-12-20T11:43:52;98338.25;;;4.72;100.00
77574;BME280;66710;48.868;9.080;2023-12-20T11:46:18;98334.97;;;4.70;100.00
77574;BME280;66710;48.868;9.080;2023-12-20T11:48:44;98331.19;;;4.71;100.00
77574;BME280;66710;48.868;9.080;2023-12-20T11:51:11;98330.88;;;4.79;100.00
77574;BME280;66710;48.868;9.080;2023-12-20T11:53:37;98320.91;;;4.80;100.00
77574;BME280;66710;48.868;9.080;2023-12-20T11:56:04;98309.44;;;4.84;100.00
77574;BME280;66710;48.868;9.080;2023-12-20T11:58:29;98312.97;;;4.85;100.00
77574;BME280;66710;48.868;9.080;2023-12-20T12:00:55;98304.63;;;4.86;100.00
77574;BME280;66710;48.868;9.080;2023-12-20T12:03:22;98307.94;;;4.88;100.00
77574;BME280;66710;48.868;9.080;2023-12-20T12:05:49;98296.09;;;4.89;100.00
77574;BME280;66710;48.868;9.080;2023-12-20T12:08:14;98299.16;;;4.93;100.00
77574;BME280;66710;48.868;9.080;2023-12-20T12:10:39;98295.38;;;4.94;100.00
77574;BME280;66710;48.868;9.080;2023-12-20T12:13:05;98291.56;;;5.02;100.00
77574;BME280;66710;48.868;9.080;2023-12-20T12:15:31;98297.19;;;5.00;100.00
77574;BME280;66710;48.868;9.080;2023-12-20T12:17:57;98295.31;;;5.01;100.00
77574;BME280;66710;48.868;9.080;2023-12-20T12:20:23;98295.88;;;5.03;100.00
77574;BME280;66710;48.868;9.080;2023-12-20T12:23:05;98283.97;;;5.10;100.00
77574;BME280;66710;48.868;9.080;2023-12-20T12:25:32;98284.50;;;5.43;100.00
77574;BME280;66710;48.868;9.080;2023-12-20T12:27:58;98273.25;;;5.58;100.00
77574;BME280;66710;48.868;9.080;2023-12-20T12:30:24;98272.31;;;5.87;100.00
77574;BME280;66710;48.868;9.080;2023-12-20T12:32:50;98289.94;;;5.55;100.00
77574;BME280;66710;48.868;9.080;2023-12-20T12:35:16;98288.00;;;5.43;100.00
77574;BME280;66710;48.868;9.080;2023-12-20T12:37:41;98294.66;;;5.17;100.00
77574;BME280;66710;48.868;9.080;2023-12-20T12:40:10;98281.88;;;5.24;100.00
77574;BME280;66710;48.868;9.080;2023-12-20T12:42:36;98287.13;;;5.07;100.00
77574;BME280;66710;48.868;9.080;2023-12-20T12:45:02;98283.72;;;5.12;100.00
77574;BME280;66710;48.868;9.080;2023-12-20T12:47:27;98285.22;;;5.08;100.00
77574;BME280;66710;48.868;9.080;2023-12-20T12:49:53;98277.97;;;5.08;100.00
77574;BME280;66710;48.868;9.080;2023-12-20T12:52:19;98277.84;;;5.03;100.00
77574;BME280;66710;48.868;9.080;2023-12-20T12:54:44;98285.78;;;4.98;100.00
77574;BME280;66710;48.868;9.080;2023-12-20T12:57:11;98276.13;;;4.90;100.00